Time;durP1;ratioP1;P1;durP2;ratioP2;P2;SDS_P1;SDS_P2;PMS_P1;PMS_P2;Temp;Humidity;BMP_temperature;BMP_pressure;BME280_temperature;BME280_humidity;BME280_pressure;Samples;Min_cycle;Max_cycle;Signal;HPM_P1;HPM_P2
2023/09/06 00:00:43;;;;;;;4.97;2.70;;;;;;;;;;5061212;28;20364;-83
2023/09/06 00:03:09;;;;;;;5.05;2.63;;;;;;;;;;5051064;28;20024;-83
2023/09/06 00:05:41;;;;;;;7.25;3.38;;;;;;;;;;5057661;28;20033;-83
2023/09/06 00:08:08;;;;;;;4.63;2.97;;;;;;;;;;5055835;28;20024;-82
2023/09/06 00:10:38;;;;;;;5.63;2.40;;;;;;;;;;5060178;28;20047;-84
2023/09/06 00:13:04;;;;;;;3.55;2.60;;;;;;;;;;5057393;28;20029;-83
2023/09/06 00:15:30;;;;;;;5.18;2.42;;;;;;;;;;5062000;28;20077;-83
2023/09/06 00:17:56;;;;;;;5.80;2.75;;;;;;;;;;5058215;28;20021;-84
2023/09/06 00:20:24;;;;;;;4.60;2.63;;;;;;;;;;5061443;28;20052;-83
2023/09/06 00:23:00;;;;;;;5.63;2.58;;;;;;;;;;5052485;28;20016;-82
2023/09/06 00:25:27;;;;;;;4.75;2.50;;;;;;;;;;5059197;28;20028;-83
2023/09/06 00:27:54;;;;;;;5.57;2.53;;;;;;;;;;5060982;28;20025;-83
2023/09/06 00:30:20;;;;;;;3.20;2.03;;;;;;;;;;5059164;28;20054;-83
2023/09/06 00:32:47;;;;;;;9.65;2.38;;;;;;;;;;5058066;28;20045;-82
2023/09/06 00:35:14;;;;;;;3.97;2.42;;;;;;;;;;5057919;28;20112;-83
2023/09/06 00:37:41;;;;;;;3.97;2.65;;;;;;;;;;5059361;28;20028;-83
2023/09/06 00:40:14;;;;;;;6.38;2.95;;;;;;;;;;5056787;28;20033;-83
2023/09/06 00:42:40;;;;;;;3.42;2.08;;;;;;;;;;5067143;28;20033;-83
2023/09/06 00:45:06;;;;;;;3.95;2.30;;;;;;;;;;5062272;28;20033;-84
2023/09/06 00:47:32;;;;;;;3.22;1.85;;;;;;;;;;5060747;28;20097;-83
2023/09/06 00:49:58;;;;;;;5.00;2.20;;;;;;;;;;5059356;28;20394;-83
2023/09/06 00:52:25;;;;;;;3.72;2.20;;;;;;;;;;5066205;28;20518;-83
2023/09/06 00:54:51;;;;;;;3.40;2.45;;;;;;;;;;5066672;28;20023;-83
2023/09/06 00:57:17;;;;;;;4.93;2.45;;;;;;;;;;5056577;28;20024;-84
2023/09/06 00:59:43;;;;;;;4.13;2.58;;;;;;;;;;5063460;28;20037;-82
2023/09/06 01:02:09;;;;;;;3.10;2.03;;;;;;;;;;5059467;28;20033;-83
2023/09/06 01:04:35;;;;;;;3.63;2.00;;;;;;;;;;5059930;28;20036;-83
2023/09/06 01:07:06;;;;;;;3.80;2.13;;;;;;;;;;5062990;28;20860;-84
2023/09/06 01:09:32;;;;;;;3.85;2.60;;;;;;;;;;5062797;28;20529;-84
2023/09/06 01:12:10;;;;;;;2.17;1.70;;;;;;;;;;5066731;28;20032;-83
2023/09/06 01:14:41;;;;;;;3.00;2.05;;;;;;;;;;5066003;28;20383;-83
2023/09/06 01:17:07;;;;;;;3.97;2.17;;;;;;;;;;5055696;28;20053;-83
2023/09/06 01:19:44;;;;;;;3.97;2.70;;;;;;;;;;5067401;28;20032;-82
2023/09/06 01:22:18;;;;;;;3.78;2.33;;;;;;;;;;5056729;28;20079;-83
2023/09/06 01:24:44;;;;;;;4.15;2.55;;;;;;;;;;5062799;28;20515;-83
2023/09/06 01:27:12;;;;;;;3.92;2.05;;;;;;;;;;5061962;28;20197;-82
2023/09/06 01:29:38;;;;;;;3.25;1.83;;;;;;;;;;5060825;28;20049;-82
2023/09/06 01:32:05;;;;;;;3.83;2.20;;;;;;;;;;5060100;28;20446;-83
2023/09/06 01:34:31;;;;;;;3.28;2.10;;;;;;;;;;5059294;28;20482;-83
2023/09/06 01:36:57;;;;;;;2.75;1.80;;;;;;;;;;5056026;28;20023;-82
2023/09/06 01:39:23;;;;;;;3.92;2.13;;;;;;;;;;5061197;28;20075;-82
2023/09/06 01:41:49;;;;;;;2.95;1.98;;;;;;;;;;5064631;28;20052;-82
2023/09/06 01:44:15;;;;;;;5.72;1.90;;;;;;;;;;5068748;28;20032;-82
2023/09/06 01:46:41;;;;;;;3.28;2.00;;;;;;;;;;5057346;28;20036;-82
2023/09/06 01:49:08;;;;;;;3.67;1.83;;;;;;;;;;5053086;28;20482;-81
2023/09/06 01:51:34;;;;;;;2.88;1.80;;;;;;;;;;5058730;28;20078;-82
2023/09/06 01:54:02;;;;;;;1.48;1.38;;;;;;;;;;5058374;28;20044;-82
2023/09/06 01:56:28;;;;;;;6.68;2.65;;;;;;;;;;5061786;28;20543;-82
2023/09/06 01:58:54;;;;;;;2.95;2.00;;;;;;;;;;5065672;28;20033;-82
2023/09/06 02:01:21;;;;;;;3.30;2.20;;;;;;;;;;5060410;28;20029;-82
2023/09/06 02:03:47;;;;;;;3.65;2.17;;;;;;;;;;5060870;28;20077;-82
2023/09/06 02:06:12;;;;;;;3.83;2.08;;;;;;;;;;5060342;28;20529;-82
2023/09/06 02:08:39;;;;;;;3.28;2.08;;;;;;;;;;5065727;28;20028;-82
2023/09/06 02:11:06;;;;;;;1.92;1.65;;;;;;;;;;5060123;28;20376;-82
2023/09/06 02:13:32;;;;;;;3.00;1.63;;;;;;;;;;5067180;28;20035;-83
2023/09/06 02:15:59;;;;;;;3.25;1.83;;;;;;;;;;5059042;28;20048;-82
2023/09/06 02:18:26;;;;;;;3.55;2.35;;;;;;;;;;5059098;28;20040;-82
2023/09/06 02:20:52;;;;;;;3.22;1.98;;;;;;;;;;5064992;28;20487;-83
2023/09/06 02:23:18;;;;;;;2.65;1.58;;;;;;;;;;5057357;28;20037;-82
2023/09/06 02:25:44;;;;;;;6.70;2.08;;;;;;;;;;5060836;28;20024;-82
2023/09/06 02:28:10;;;;;;;5.38;2.05;;;;;;;;;;5063137;28;20490;-82
2023/09/06 02:30:36;;;;;;;3.15;2.38;;;;;;;;;;5059586;28;20105;-83
2023/09/06 02:33:04;;;;;;;2.88;1.70;;;;;;;;;;5058631;28;20480;-82
2023/09/06 02:35:30;;;;;;;1.67;1.42;;;;;;;;;;5059075;28;20033;-83
2023/09/06 02:37:56;;;;;;;2.20;1.67;;;;;;;;;;5063979;28;20025;-83
2023/09/06 02:40:22;;;;;;;4.40;2.15;;;;;;;;;;5061764;28;20032;-83
2023/09/06 02:42:49;;;;;;;4.28;1.80;;;;;;;;;;5052176;28;20049;-83
2023/09/06 02:45:15;;;;;;;2.33;1.65;;;;;;;;;;5063987;28;20039;-83
2023/09/06 02:47:48;;;;;;;2.13;1.70;;;;;;;;;;5054320;28;20024;-83
2023/09/06 02:50:18;;;;;;;1.48;1.38;;;;;;;;;;5052755;28;20462;-82
2023/09/06 02:52:47;;;;;;;2.25;1.60;;;;;;;;;;5056694;28;20020;-82
2023/09/06 02:55:13;;;;;;;2.25;1.73;;;;;;;;;;5054402;28;20020;-83
2023/09/06 02:57:40;;;;;;;1.92;1.73;;;;;;;;;;5060816;28;20020;-82
2023/09/06 03:00:20;;;;;;;1.80;1.55;;;;;;;;;;5054953;28;20103;-82
2023/09/06 03:02:46;;;;;;;4.43;1.83;;;;;;;;;;5058486;28;20039;-82
2023/09/06 03:05:17;;;;;;;8.70;1.83;;;;;;;;;;5053490;28;20032;-81
2023/09/06 03:07:43;;;;;;;2.28;1.58;;;;;;;;;;5061566;28;20035;-82
2023/09/06 03:10:09;;;;;;;2.67;1.70;;;;;;;;;;5057514;28;20112;-82
2023/09/06 03:12:35;;;;;;;4.70;1.80;;;;;;;;;;5052611;28;20029;-82
2023/09/06 03:15:01;;;;;;;3.10;2.20;;;;;;;;;;5050985;28;20020;-82
2023/09/06 03:17:27;;;;;;;2.13;1.75;;;;;;;;;;5059691;28;20542;-82
2023/09/06 03:19:53;;;;;;;2.30;1.58;;;;;;;;;;5052366;28;20605;-82
2023/09/06 03:22:23;;;;;;;2.60;1.77;;;;;;;;;;5057097;28;20025;-82
2023/09/06 03:24:55;;;;;;;1.98;1.25;;;;;;;;;;5061415;28;20086;-82
2023/09/06 03:27:21;;;;;;;2.35;1.73;;;;;;;;;;5062608;28;20036;-83
2023/09/06 03:29:51;;;;;;;1.92;1.38;;;;;;;;;;5058122;28;20036;-75
2023/09/06 03:32:17;;;;;;;3.13;1.80;;;;;;;;;;5059858;28;20024;-77
2023/09/06 03:34:45;;;;;;;1.88;1.45;;;;;;;;;;5055830;28;20126;-81
2023/09/06 03:37:11;;;;;;;3.38;2.03;;;;;;;;;;5058718;28;20025;-81
2023/09/06 03:39:41;;;;;;;3.40;1.50;;;;;;;;;;5052941;28;20025;-81
2023/09/06 03:42:10;;;;;;;2.67;1.70;;;;;;;;;;5049181;28;20028;-81
2023/09/06 03:44:37;;;;;;;2.53;2.30;;;;;;;;;;5060347;28;20025;-82
2023/09/06 03:47:13;;;;;;;2.63;1.80;;;;;;;;;;5065013;28;20264;-81
2023/09/06 03:49:40;;;;;;;6.45;2.08;;;;;;;;;;5065406;28;20130;-81
2023/09/06 03:52:06;;;;;;;2.03;1.38;;;;;;;;;;5062325;28;20443;-80
2023/09/06 03:54:34;;;;;;;2.85;1.75;;;;;;;;;;5058401;28;20062;-80
2023/09/06 03:57:00;;;;;;;3.08;1.58;;;;;;;;;;5054598;28;20483;-80
2023/09/06 03:59:26;;;;;;;2.17;1.20;;;;;;;;;;5060480;28;20033;-80
2023/09/06 04:01:55;;;;;;;1.80;1.35;;;;;;;;;;5054474;28;20079;-80
2023/09/06 04:04:21;;;;;;;4.47;1.67;;;;;;;;;;5067170;28;20040;-80
2023/09/06 04:06:47;;;;;;;2.13;1.85;;;;;;;;;;5064720;28;20021;-80
2023/09/06 04:09:13;;;;;;;1.60;1.50;;;;;;;;;;5056495;28;20969;-80
2023/09/06 04:11:42;;;;;;;1.95;1.73;;;;;;;;;;5071130;28;20055;-80
2023/09/06 04:14:08;;;;;;;1.98;1.50;;;;;;;;;;5059975;28;20029;-80
2023/09/06 04:16:37;;;;;;;1.98;1.77;;;;;;;;;;5068689;28;20024;-80
2023/09/06 04:19:05;;;;;;;1.55;1.27;;;;;;;;;;5070634;28;20020;-80
2023/09/06 04:21:31;;;;;;;1.75;1.40;;;;;;;;;;5062765;28;20506;-81
2023/09/06 04:23:57;;;;;;;2.40;1.50;;;;;;;;;;5065793;28;20113;-81
2023/09/06 04:26:25;;;;;;;2.33;1.42;;;;;;;;;;5063025;28;20032;-81
2023/09/06 04:28:51;;;;;;;1.77;1.45;;;;;;;;;;5053774;28;20060;-81
2023/09/06 04:31:17;;;;;;;1.92;1.58;;;;;;;;;;5070028;28;20076;-81
2023/09/06 04:33:43;;;;;;;1.98;1.58;;;;;;;;;;5060351;28;20033;-81
2023/09/06 04:36:09;;;;;;;2.33;1.60;;;;;;;;;;5062285;28;20426;-81
2023/09/06 04:38:35;;;;;;;1.33;1.20;;;;;;;;;;5069375;28;20044;-81
2023/09/06 04:41:02;;;;;;;3.35;1.50;;;;;;;;;;5069325;28;20107;-81
2023/09/06 04:43:28;;;;;;;2.10;1.55;;;;;;;;;;5059672;28;20025;-81
2023/09/06 04:45:54;;;;;;;2.05;1.30;;;;;;;;;;5065858;28;20032;-81
2023/09/06 04:48:23;;;;;;;2.10;1.70;;;;;;;;;;5062112;28;20040;-81
2023/09/06 04:50:50;;;;;;;2.08;1.55;;;;;;;;;;5055958;28;20034;-81
2023/09/06 04:53:17;;;;;;;2.58;1.60;;;;;;;;;;5053164;28;20111;-81
2023/09/06 04:55:44;;;;;;;2.03;1.38;;;;;;;;;;5066369;28;20476;-81
2023/09/06 04:58:11;;;;;;;2.72;1.52;;;;;;;;;;5061414;28;20032;-81
2023/09/06 05:00:38;;;;;;;2.67;1.52;;;;;;;;;;5069369;28;20119;-81
2023/09/06 05:03:08;;;;;;;3.13;1.55;;;;;;;;;;5062943;28;20099;-81
2023/09/06 05:05:35;;;;;;;2.13;1.50;;;;;;;;;;5062737;28;20028;-81
2023/09/06 05:08:03;;;;;;;3.85;1.50;;;;;;;;;;5060429;28;20070;-81
2023/09/06 05:10:29;;;;;;;2.20;1.25;;;;;;;;;;5067632;28;20040;-81
2023/09/06 05:12:55;;;;;;;1.63;1.27;;;;;;;;;;5052923;28;20037;-81
2023/09/06 05:15:21;;;;;;;1.50;1.23;;;;;;;;;;5050940;28;20032;-81
2023/09/06 05:17:46;;;;;;;2.75;1.63;;;;;;;;;;5049783;28;20013;-79
2023/09/06 05:20:25;;;;;;;1.45;1.20;;;;;;;;;;5063171;28;20029;-81
2023/09/06 05:22:51;;;;;;;3.13;1.45;;;;;;;;;;5066028;28;20020;-81
2023/09/06 05:25:18;;;;;;;1.77;1.60;;;;;;;;;;5070734;28;20037;-82
2023/09/06 05:27:43;;;;;;;2.92;1.63;;;;;;;;;;5069130;28;20713;-81
2023/09/06 05:30:10;;;;;;;1.35;1.13;;;;;;;;;;5063725;28;20037;-81
2023/09/06 05:32:51;;;;;;;2.10;1.25;;;;;;;;;;5052559;28;20066;-83
2023/09/06 05:35:17;;;;;;;2.58;1.50;;;;;;;;;;5065951;28;20028;-81
2023/09/06 05:37:43;;;;;;;1.80;1.55;;;;;;;;;;5064016;28;20618;-81
2023/09/06 05:40:12;;;;;;;1.77;1.30;;;;;;;;;;5064678;28;20029;-82
2023/09/06 05:42:38;;;;;;;3.67;1.50;;;;;;;;;;5067859;28;20029;-81
2023/09/06 05:45:04;;;;;;;2.60;1.42;;;;;;;;;;5059162;28;20032;-82
2023/09/06 05:47:30;;;;;;;2.00;1.50;;;;;;;;;;5061787;28;20032;-89
2023/09/06 05:50:45;;;;;;;;;;;;;;;;;;;;;
2023/09/06 06:04:17;;;;;;;1.70;1.45;;;;;;;;;;2792083;26;20045;-84
2023/09/06 06:06:43;;;;;;;4.03;1.60;;;;;;;;;;5028395;28;20037;-84
2023/09/06 06:09:11;;;;;;;1.75;1.30;;;;;;;;;;5027118;28;20033;-85
2023/09/06 06:11:37;;;;;;;2.33;1.40;;;;;;;;;;5026725;28;20033;-83
2023/09/06 06:14:04;;;;;;;3.08;1.67;;;;;;;;;;5024772;28;20029;-86
2023/09/06 06:16:30;;;;;;;7.13;1.58;;;;;;;;;;5020602;28;20053;-85
2023/09/06 06:18:56;;;;;;;1.83;1.48;;;;;;;;;;5024645;28;20472;-85
2023/09/06 06:21:22;;;;;;;2.42;1.70;;;;;;;;;;5027859;28;20535;-85
2023/09/06 06:23:48;;;;;;;3.30;1.70;;;;;;;;;;5026948;28;20026;-84
2023/09/06 06:26:19;;;;;;;2.28;1.58;;;;;;;;;;5029969;28;20059;-85
2023/09/06 06:28:45;;;;;;;6.75;1.88;;;;;;;;;;5027970;28;20033;-85
2023/09/06 06:31:11;;;;;;;2.83;1.75;;;;;;;;;;5029199;28;20038;-86
2023/09/06 06:33:39;;;;;;;1.95;1.42;;;;;;;;;;5029616;28;20036;-86
2023/09/06 06:36:05;;;;;;;2.65;1.77;;;;;;;;;;5028393;28;20030;-86
2023/09/06 06:38:32;;;;;;;5.13;1.60;;;;;;;;;;5028629;28;20029;-85
2023/09/06 06:40:58;;;;;;;2.75;1.73;;;;;;;;;;5028144;28;20064;-85
2023/09/06 06:43:24;;;;;;;2.13;1.40;;;;;;;;;;5030110;28;20057;-86
2023/09/06 06:45:53;;;;;;;2.17;1.65;;;;;;;;;;5025221;28;20033;-79
2023/09/06 06:48:19;;;;;;;2.53;1.50;;;;;;;;;;5020503;28;20048;-81
2023/09/06 06:50:45;;;;;;;2.45;1.65;;;;;;;;;;5020133;28;20029;-81
2023/09/06 06:53:11;;;;;;;2.05;1.60;;;;;;;;;;5016541;28;20030;-82
2023/09/06 06:55:37;;;;;;;6.38;1.90;;;;;;;;;;5019016;28;20022;-81
2023/09/06 06:58:03;;;;;;;1.88;1.63;;;;;;;;;;5001803;28;20034;-81
2023/09/06 07:00:31;;;;;;;2.58;1.85;;;;;;;;;;5003068;28;20052;-82
2023/09/06 07:02:58;;;;;;;2.75;1.40;;;;;;;;;;5000827;28;20506;-81
2023/09/06 07:05:24;;;;;;;2.25;1.90;;;;;;;;;;5002834;28;20050;-82
2023/09/06 07:07:50;;;;;;;3.22;1.88;;;;;;;;;;4996758;28;20034;-81
2023/09/06 07:10:16;;;;;;;3.20;1.90;;;;;;;;;;5000604;28;20340;-81
2023/09/06 07:12:42;;;;;;;6.43;2.00;;;;;;;;;;5000888;28;20022;-82
2023/09/06 07:15:08;;;;;;;3.47;1.90;;;;;;;;;;5006099;28;20145;-82
2023/09/06 07:17:34;;;;;;;2.97;2.03;;;;;;;;;;5005433;28;20028;-81
2023/09/06 07:20:00;;;;;;;2.25;1.92;;;;;;;;;;5002088;28;20022;-82
2023/09/06 07:22:26;;;;;;;1.95;1.40;;;;;;;;;;5002153;28;20084;-82
2023/09/06 07:24:52;;;;;;;2.60;2.08;;;;;;;;;;5005235;28;20469;-81
2023/09/06 07:27:18;;;;;;;2.28;1.60;;;;;;;;;;5007524;28;20071;-82
2023/09/06 07:29:44;;;;;;;2.92;2.00;;;;;;;;;;5004856;28;20528;-82
2023/09/06 07:32:10;;;;;;;2.72;1.73;;;;;;;;;;5002949;28;20084;-88
2023/09/06 07:34:36;;;;;;;3.53;2.08;;;;;;;;;;5002840;28;20084;-84
2023/09/06 07:37:02;;;;;;;1.90;1.48;;;;;;;;;;5006118;28;20029;-81
2023/09/06 07:39:28;;;;;;;2.42;1.85;;;;;;;;;;5002067;28;20057;-83
2023/09/06 07:41:56;;;;;;;3.25;1.65;;;;;;;;;;5004030;28;20077;-83
2023/09/06 07:44:22;;;;;;;2.13;1.67;;;;;;;;;;5006223;28;20030;-83
2023/09/06 07:46:48;;;;;;;2.10;1.63;;;;;;;;;;4999354;28;20440;-84
2023/09/06 07:49:18;;;;;;;2.13;1.50;;;;;;;;;;5003920;28;20026;-82
2023/09/06 07:51:44;;;;;;;1.67;1.48;;;;;;;;;;5000350;28;20037;-83
2023/09/06 07:54:11;;;;;;;3.15;1.83;;;;;;;;;;5006712;28;20037;-83
2023/09/06 07:56:39;;;;;;;4.45;1.75;;;;;;;;;;5001157;28;20033;-84
2023/09/06 07:59:05;;;;;;;4.50;2.35;;;;;;;;;;5001698;28;20050;-83
2023/09/06 08:01:32;;;;;;;4.90;1.80;;;;;;;;;;5002795;28;20044;-84
2023/09/06 08:03:58;;;;;;;2.10;1.83;;;;;;;;;;5005452;28;21061;-87
2023/09/06 08:06:24;;;;;;;2.63;1.73;;;;;;;;;;5006824;28;20022;-82
2023/09/06 08:08:51;;;;;;;5.88;1.90;;;;;;;;;;5004387;28;20030;-81
2023/09/06 08:11:17;;;;;;;5.95;1.65;;;;;;;;;;5000525;28;21064;-81
2023/09/06 08:13:43;;;;;;;5.47;1.88;;;;;;;;;;4995698;28;20026;-82
2023/09/06 08:16:12;;;;;;;3.17;1.63;;;;;;;;;;4999186;28;20400;-83
2023/09/06 08:18:38;;;;;;;3.33;1.85;;;;;;;;;;5003951;28;20571;-83
2023/09/06 08:21:04;;;;;;;2.38;1.70;;;;;;;;;;5001978;28;20030;-83
2023/09/06 08:23:30;;;;;;;2.70;1.83;;;;;;;;;;5002108;28;20057;-83
2023/09/06 08:25:57;;;;;;;2.15;1.70;;;;;;;;;;5009263;28;20073;-89
2023/09/06 08:28:23;;;;;;;2.38;1.98;;;;;;;;;;5006634;28;20554;-88
2023/09/06 08:30:49;;;;;;;2.85;2.22;;;;;;;;;;5003515;28;20034;-85
2023/09/06 08:33:16;;;;;;;3.47;2.42;;;;;;;;;;4991769;28;20036;-85
2023/09/06 08:35:42;;;;;;;4.03;2.47;;;;;;;;;;5000320;28;20064;-84
2023/09/06 08:38:09;;;;;;;4.18;2.38;;;;;;;;;;5001332;28;20374;-83
2023/09/06 08:40:36;;;;;;;3.83;2.25;;;;;;;;;;4997975;28;20400;-84
2023/09/06 08:43:03;;;;;;;3.53;2.28;;;;;;;;;;5002663;28;20038;-83
2023/09/06 08:45:29;;;;;;;2.95;2.28;;;;;;;;;;4997435;28;20026;-84
2023/09/06 08:47:56;;;;;;;3.75;2.40;;;;;;;;;;5001310;28;20041;-82
2023/09/06 08:50:22;;;;;;;4.90;2.55;;;;;;;;;;5003558;28;20057;-83
2023/09/06 08:52:50;;;;;;;4.18;2.50;;;;;;;;;;5005778;28;20770;-83
2023/09/06 08:55:16;;;;;;;4.03;2.60;;;;;;;;;;5009322;28;20022;-83
2023/09/06 08:57:44;;;;;;;4.93;2.47;;;;;;;;;;5002689;28;20025;-82
2023/09/06 09:00:11;;;;;;;9.18;3.00;;;;;;;;;;5007264;28;20122;-81
2023/09/06 09:02:37;;;;;;;3.38;2.03;;;;;;;;;;4997555;28;20029;-79
2023/09/06 09:05:05;;;;;;;4.10;2.70;;;;;;;;;;4996453;28;20102;-79
2023/09/06 09:07:31;;;;;;;2.67;2.30;;;;;;;;;;5006388;28;20566;-78
2023/09/06 09:09:58;;;;;;;7.25;2.75;;;;;;;;;;5005513;28;20097;-78
2023/09/06 09:12:28;;;;;;;3.20;2.15;;;;;;;;;;5004149;28;20041;-78
2023/09/06 09:14:56;;;;;;;3.63;2.38;;;;;;;;;;5007756;28;20026;-78
2023/09/06 09:17:22;;;;;;;3.55;2.30;;;;;;;;;;5004622;28;20033;-79
2023/09/06 09:19:49;;;;;;;3.22;2.30;;;;;;;;;;5008196;28;20612;-79
2023/09/06 09:22:16;;;;;;;3.08;1.73;;;;;;;;;;5004376;28;20076;-78
2023/09/06 09:24:42;;;;;;;5.93;2.38;;;;;;;;;;5006941;28;20057;-78
2023/09/06 09:27:08;;;;;;;2.60;1.80;;;;;;;;;;5002667;28;20057;-79
2023/09/06 09:29:36;;;;;;;4.70;2.33;;;;;;;;;;5004610;28;20026;-79
2023/09/06 09:32:03;;;;;;;3.83;2.40;;;;;;;;;;5000761;28;20026;-88
2023/09/06 09:34:29;;;;;;;3.58;2.10;;;;;;;;;;5004852;28;20022;-80
2023/09/06 09:36:55;;;;;;;2.90;2.15;;;;;;;;;;5008155;28;20034;-81
2023/09/06 09:39:27;;;;;;;2.70;2.05;;;;;;;;;;5007563;28;20029;-79
2023/09/06 09:41:57;;;;;;;3.83;2.33;;;;;;;;;;5007420;28;20057;-79
2023/09/06 09:44:23;;;;;;;6.80;2.70;;;;;;;;;;5009315;28;20547;-79
2023/09/06 09:46:50;;;;;;;5.28;2.25;;;;;;;;;;5005957;28;20033;-79
2023/09/06 09:49:28;;;;;;;2.22;1.85;;;;;;;;;;4997348;28;20034;-79
2023/09/06 09:51:54;;;;;;;3.50;2.35;;;;;;;;;;4998845;28;20031;-79
2023/09/06 09:54:21;;;;;;;3.63;2.60;;;;;;;;;;5005710;28;20056;-79
2023/09/06 09:56:52;;;;;;;3.13;1.85;;;;;;;;;;5006884;28;20388;-79
2023/09/06 09:59:20;;;;;;;2.47;2.00;;;;;;;;;;5008023;28;20044;-79
2023/09/06 10:01:47;;;;;;;3.95;2.13;;;;;;;;;;5009023;28;20034;-79
2023/09/06 10:04:13;;;;;;;4.55;2.60;;;;;;;;;;4999863;28;20049;-80
2023/09/06 10:06:39;;;;;;;3.40;2.38;;;;;;;;;;5007163;28;20044;-78
2023/09/06 10:09:12;;;;;;;2.85;2.03;;;;;;;;;;4997324;28;20117;-80
2023/09/06 10:11:39;;;;;;;3.03;2.20;;;;;;;;;;5005697;28;20507;-79
2023/09/06 10:14:07;;;;;;;2.55;2.08;;;;;;;;;;4995303;28;20486;-80
2023/09/06 10:16:33;;;;;;;3.17;1.85;;;;;;;;;;5006990;28;20156;-79
2023/09/06 10:18:59;;;;;;;2.85;1.88;;;;;;;;;;5009668;28;20042;-79
2023/09/06 10:21:26;;;;;;;3.40;1.95;;;;;;;;;;5009403;28;20034;-80
2023/09/06 10:23:53;;;;;;;3.80;1.95;;;;;;;;;;5006610;28;20034;-80
2023/09/06 10:26:34;;;;;;;2.80;1.88;;;;;;;;;;5008921;28;20220;-80
2023/09/06 10:29:01;;;;;;;2.42;1.42;;;;;;;;;;4999427;28;20080;-79
2023/09/06 10:31:30;;;;;;;4.28;2.33;;;;;;;;;;5002613;28;21300;-78
2023/09/06 10:33:56;;;;;;;5.75;1.95;;;;;;;;;;5009830;28;20033;-79
2023/09/06 10:36:27;;;;;;;2.78;1.88;;;;;;;;;;5007836;28;20028;-79
2023/09/06 10:38:55;;;;;;;3.55;2.10;;;;;;;;;;5006395;28;20033;-80
2023/09/06 10:41:21;;;;;;;2.65;1.85;;;;;;;;;;4995489;28;20042;-79
2023/09/06 10:44:03;;;;;;;4.20;1.67;;;;;;;;;;4994368;28;20034;-79
2023/09/06 10:46:33;;;;;;;5.30;1.80;;;;;;;;;;5002231;28;20126;-80
2023/09/06 10:49:23;;;;;;;4.82;2.05;;;;;;;;;;5008629;28;20033;-79
2023/09/06 10:51:55;;;;;;;2.65;1.95;;;;;;;;;;5007056;28;20476;-79
2023/09/06 10:54:35;;;;;;;2.97;1.77;;;;;;;;;;5007627;28;20034;-79
2023/09/06 10:57:02;;;;;;;3.10;2.05;;;;;;;;;;4999238;28;20022;-79
2023/09/06 10:59:28;;;;;;;2.70;1.63;;;;;;;;;;5008373;28;20048;-78
2023/09/06 11:02:07;;;;;;;3.70;1.85;;;;;;;;;;5005098;28;20477;-78
2023/09/06 11:04:33;;;;;;;2.38;1.80;;;;;;;;;;5002329;28;20336;-78
2023/09/06 11:06:59;;;;;;;2.63;1.88;;;;;;;;;;4999596;28;20033;-78
2023/09/06 11:09:25;;;;;;;2.05;1.80;;;;;;;;;;4990572;28;20073;-79
2023/09/06 11:11:52;;;;;;;3.63;2.03;;;;;;;;;;4991440;28;20053;-79
2023/09/06 11:14:19;;;;;;;3.03;1.77;;;;;;;;;;5008569;28;20508;-79
2023/09/06 11:16:48;;;;;;;3.20;1.98;;;;;;;;;;5009418;28;20461;-79
2023/09/06 11:19:14;;;;;;;2.00;1.80;;;;;;;;;;4998414;28;20082;-80
2023/09/06 11:21:40;;;;;;;3.90;2.20;;;;;;;;;;4995909;28;20034;-80
2023/09/06 11:24:06;;;;;;;2.60;2.00;;;;;;;;;;5002248;28;20041;-80
2023/09/06 11:26:35;;;;;;;3.22;1.98;;;;;;;;;;5012396;28;21966;-80
2023/09/06 11:29:20;;;;;;;3.35;1.90;;;;;;;;;;4999347;28;20041;-79
2023/09/06 11:31:59;;;;;;;4.07;2.33;;;;;;;;;;4997340;28;20041;-82
2023/09/06 11:34:45;;;;;;;3.63;2.47;;;;;;;;;;5003526;28;20050;-83
2023/09/06 11:37:14;;;;;;;6.20;2.55;;;;;;;;;;4995524;28;20026;-82
2023/09/06 11:39:40;;;;;;;2.10;1.73;;;;;;;;;;4993159;28;20539;-84
2023/09/06 11:42:13;;;;;;;3.20;2.00;;;;;;;;;;5005982;28;20022;-80
2023/09/06 11:44:43;;;;;;;3.53;2.35;;;;;;;;;;5005211;28;20026;-86
2023/09/06 11:47:09;;;;;;;2.55;1.92;;;;;;;;;;5003326;28;20393;-81
2023/09/06 11:49:35;;;;;;;2.10;1.73;;;;;;;;;;5005750;28;20030;-84
2023/09/06 11:52:05;;;;;;;5.50;2.25;;;;;;;;;;4998022;28;20033;-83
2023/09/06 11:54:32;;;;;;;2.63;1.80;;;;;;;;;;5003098;28;20107;-82
2023/09/06 11:56:58;;;;;;;3.35;1.92;;;;;;;;;;5000497;28;20084;-83
2023/09/06 11:59:24;;;;;;;2.55;1.90;;;;;;;;;;5001155;28;20050;-81
2023/09/06 12:01:58;;;;;;;3.28;1.88;;;;;;;;;;5005337;28;20030;-83
2023/09/06 12:04:26;;;;;;;7.15;1.88;;;;;;;;;;4992486;28;20058;-83
2023/09/06 12:06:54;;;;;;;5.55;1.88;;;;;;;;;;4989612;28;20026;-83
2023/09/06 12:09:20;;;;;;;3.38;2.08;;;;;;;;;;4999597;28;20038;-82
2023/09/06 12:11:46;;;;;;;2.10;1.67;;;;;;;;;;5007156;28;20030;-82
2023/09/06 12:14:13;;;;;;;2.20;1.90;;;;;;;;;;4998319;28;20105;-82
2023/09/06 12:16:39;;;;;;;5.28;2.05;;;;;;;;;;4998208;28;20038;-81
2023/09/06 12:19:06;;;;;;;2.08;1.55;;;;;;;;;;4998386;28;20096;-82
2023/09/06 12:21:32;;;;;;;2.10;1.70;;;;;;;;;;5006104;28;20594;-81
2023/09/06 12:23:58;;;;;;;2.33;1.50;;;;;;;;;;5007722;28;20052;-81
2023/09/06 12:26:24;;;;;;;2.35;1.70;;;;;;;;;;5020999;28;20388;-81
2023/09/06 12:28:50;;;;;;;2.80;1.92;;;;;;;;;;5004794;28;20116;-81
2023/09/06 12:31:16;;;;;;;2.65;1.80;;;;;;;;;;5010568;28;20030;-81
2023/09/06 12:33:44;;;;;;;3.22;1.75;;;;;;;;;;5007472;28;20022;-81
2023/09/06 12:36:11;;;;;;;4.50;2.15;;;;;;;;;;4996309;28;20053;-82
2023/09/06 12:38:37;;;;;;;4.07;1.83;;;;;;;;;;4996338;28;20113;-81
2023/09/06 12:41:06;;;;;;;2.22;1.60;;;;;;;;;;5004373;28;20163;-81
2023/09/06 12:43:36;;;;;;;2.35;1.85;;;;;;;;;;5009908;28;20032;-81
2023/09/06 12:46:02;;;;;;;2.40;1.50;;;;;;;;;;5008215;28;20033;-81
2023/09/06 12:48:28;;;;;;;1.92;1.70;;;;;;;;;;5005511;28;20113;-81
2023/09/06 12:50:55;;;;;;;2.42;1.90;;;;;;;;;;4998428;28;20152;-81
2023/09/06 12:53:22;;;;;;;2.80;1.80;;;;;;;;;;5006021;28;20038;-80
2023/09/06 12:55:48;;;;;;;2.10;1.75;;;;;;;;;;5010981;28;20016;-80
2023/09/06 12:58:14;;;;;;;2.38;1.58;;;;;;;;;;5011912;28;20026;-80
2023/09/06 13:00:41;;;;;;;4.80;1.80;;;;;;;;;;4998000;28;20101;-81
2023/09/06 13:03:08;;;;;;;3.97;1.70;;;;;;;;;;5008374;28;20588;-80
2023/09/06 13:05:34;;;;;;;2.45;1.48;;;;;;;;;;4998226;28;20519;-80
2023/09/06 13:08:00;;;;;;;2.65;1.70;;;;;;;;;;5007601;28;20038;-80
2023/09/06 13:10:26;;;;;;;2.25;2.05;;;;;;;;;;4997140;28;20057;-80
2023/09/06 13:12:52;;;;;;;2.25;1.52;;;;;;;;;;4998066;28;20022;-80
2023/09/06 13:15:18;;;;;;;2.15;1.48;;;;;;;;;;5008872;28;20076;-80
2023/09/06 13:17:44;;;;;;;2.08;1.63;;;;;;;;;;5004319;28;20428;-80
2023/09/06 13:20:10;;;;;;;2.45;1.67;;;;;;;;;;5021792;28;20040;-79
2023/09/06 13:22:37;;;;;;;2.78;1.70;;;;;;;;;;4996743;28;20125;-84
2023/09/06 13:25:04;;;;;;;3.15;1.88;;;;;;;;;;5008380;28;20032;-82
2023/09/06 13:27:32;;;;;;;1.90;1.45;;;;;;;;;;5009824;28;20396;-84
2023/09/06 13:29:58;;;;;;;1.75;1.30;;;;;;;;;;5002875;28;20083;-84
2023/09/06 13:32:25;;;;;;;2.42;1.80;;;;;;;;;;5008319;28;20115;-83
2023/09/06 13:34:52;;;;;;;2.25;1.65;;;;;;;;;;5010090;28;20034;-83
2023/09/06 13:37:18;;;;;;;1.80;1.63;;;;;;;;;;5005244;28;20031;-84
2023/09/06 13:39:44;;;;;;;3.05;1.50;;;;;;;;;;5008486;28;20429;-83
2023/09/06 13:42:11;;;;;;;2.28;1.60;;;;;;;;;;5010819;28;20033;-83
2023/09/06 13:44:37;;;;;;;2.72;2.03;;;;;;;;;;5008898;28;20113;-83
2023/09/06 13:47:04;;;;;;;2.08;1.55;;;;;;;;;;5002619;28;20109;-83
2023/09/06 13:49:30;;;;;;;2.80;1.85;;;;;;;;;;5004251;28;20054;-84
2023/09/06 13:51:56;;;;;;;2.42;1.65;;;;;;;;;;5009385;28;20561;-83
2023/09/06 13:54:22;;;;;;;1.45;1.35;;;;;;;;;;5002473;28;20481;-84
2023/09/06 13:56:49;;;;;;;2.83;1.60;;;;;;;;;;5003872;28;20022;-84
2023/09/06 13:59:16;;;;;;;2.08;1.45;;;;;;;;;;5001808;28;20033;-84
2023/09/06 14:01:42;;;;;;;1.75;1.58;;;;;;;;;;4991967;28;20050;-84
2023/09/06 14:04:08;;;;;;;2.10;1.50;;;;;;;;;;5006052;28;20061;-80
2023/09/06 14:06:34;;;;;;;3.45;1.90;;;;;;;;;;5007515;28;20057;-81
2023/09/06 14:09:00;;;;;;;1.95;1.48;;;;;;;;;;5006913;28;20034;-82
2023/09/06 14:11:26;;;;;;;1.67;1.50;;;;;;;;;;4991215;28;20030;-82
2023/09/06 14:13:53;;;;;;;3.38;1.50;;;;;;;;;;5004265;28;20052;-85
2023/09/06 14:16:20;;;;;;;1.50;1.38;;;;;;;;;;5009304;28;20029;-88
2023/09/06 14:18:46;;;;;;;1.98;1.30;;;;;;;;;;5007602;28;20045;-86
2023/09/06 14:21:20;;;;;;;2.05;1.63;;;;;;;;;;5006669;28;20022;-85
2023/09/06 14:23:46;;;;;;;2.03;1.40;;;;;;;;;;5002020;28;20026;-85
2023/09/06 14:26:12;;;;;;;3.72;1.92;;;;;;;;;;5014074;28;20111;-85
2023/09/06 14:28:38;;;;;;;3.63;1.38;;;;;;;;;;4999144;28;20042;-81
2023/09/06 14:31:03;;;;;;;2.55;1.77;;;;;;;;;;5004932;28;20568;-83
2023/09/06 14:33:29;;;;;;;2.00;1.50;;;;;;;;;;5004040;28;20029;-86
2023/09/06 14:35:55;;;;;;;1.80;1.33;;;;;;;;;;5011655;28;20025;-93
2023/09/06 14:38:21;;;;;;;2.65;1.40;;;;;;;;;;5006168;28;20592;-86
2023/09/06 14:40:48;;;;;;;2.63;1.55;;;;;;;;;;5001740;28;20030;-88
2023/09/06 14:43:14;;;;;;;4.22;1.90;;;;;;;;;;5011993;28;20034;-93
2023/09/06 14:45:40;;;;;;;3.85;2.10;;;;;;;;;;5009217;28;20484;-83
2023/09/06 14:48:07;;;;;;;3.97;1.30;;;;;;;;;;5005496;28;20038;-86
2023/09/06 14:50:33;;;;;;;2.45;1.70;;;;;;;;;;5007969;28;20108;-84
2023/09/06 14:52:59;;;;;;;3.58;1.20;;;;;;;;;;5004984;28;20024;-82
2023/09/06 14:55:27;;;;;;;2.10;1.80;;;;;;;;;;4999737;28;20128;-85